createdAt,value
2023-03-06T00:01:09.185Z,10.60
2023-03-06T00:03:36.731Z,11.83
2023-03-06T00:06:04.592Z,12.10
2023-03-06T00:08:32.153Z,11.13
2023-03-06T00:11:01.038Z,15.10
2023-03-06T00:13:30.559Z,10.85
2023-03-06T00:16:00.212Z,12.97
2023-03-06T00:18:28.046Z,12.82
2023-03-06T00:20:55.577Z,11.75
2023-03-06T00:23:23.431Z,12.85
2023-03-06T00:25:50.938Z,12.27
2023-03-06T00:28:19.901Z,12.47
2023-03-06T00:30:48.528Z,15.30
2023-03-06T00:33:16.068Z,14.25
2023-03-06T00:35:43.688Z,14.45
2023-03-06T00:38:13.471Z,15.10
2023-03-06T00:40:41.089Z,16.67
2023-03-06T00:43:08.688Z,13.50
2023-03-06T00:45:37.749Z,13.80
2023-03-06T00:48:06.385Z,16.45
2023-03-06T00:50:35.045Z,17.15
2023-03-06T00:53:02.663Z,17.83
2023-03-06T00:55:31.061Z,18.67
2023-03-06T00:57:58.628Z,18.17
2023-03-06T01:00:28.822Z,18.88
2023-03-06T01:02:57.680Z,21.20
2023-03-06T01:05:25.281Z,22.40
2023-03-06T01:07:52.983Z,22.60
2023-03-06T01:10:20.774Z,20.58
2023-03-06T01:12:48.660Z,26.33
2023-03-06T01:15:16.243Z,24.20
2023-03-06T01:17:43.813Z,24.40
2023-03-06T01:20:14.945Z,25.83
2023-03-06T01:22:43.022Z,23.02
2023-03-06T01:25:10.951Z,23.95
2023-03-06T01:27:38.452Z,23.98
2023-03-06T01:30:07.155Z,24.60
2023-03-06T01:32:34.851Z,23.90
2023-03-06T01:35:03.663Z,23.23
2023-03-06T01:37:32.532Z,25.30
2023-03-06T01:40:00.093Z,18.70
2023-03-06T01:42:27.647Z,20.00
2023-03-06T01:45:03.177Z,21.15
2023-03-06T01:47:30.833Z,18.55
2023-03-06T01:49:59.879Z,20.38
2023-03-06T01:52:30.295Z,16.67
2023-03-06T01:55:03.345Z,20.53
2023-03-06T01:57:34.275Z,20.10
2023-03-06T02:00:06.005Z,22.48
2023-03-06T02:02:43.453Z,21.48
2023-03-06T02:05:11.009Z,23.65
2023-03-06T02:07:41.039Z,20.43
2023-03-06T02:10:11.509Z,22.42
2023-03-06T02:12:42.243Z,23.20
2023-03-06T02:15:19.256Z,23.17
2023-03-06T02:17:49.538Z,24.63
2023-03-06T02:20:24.621Z,23.60
2023-03-06T02:22:58.928Z,24.75
2023-03-06T02:25:37.132Z,28.33
2023-03-06T02:28:06.005Z,25.58
2023-03-06T02:30:34.114Z,26.92
2023-03-06T02:33:03.999Z,28.10
2023-03-06T02:35:34.512Z,26.25
2023-03-06T02:38:07.322Z,25.20
2023-03-06T02:40:36.658Z,21.88
2023-03-06T02:43:04.753Z,29.75
2023-03-06T02:45:37.751Z,25.07
2023-03-06T02:48:06.569Z,25.77
2023-03-06T02:50:34.505Z,26.10
2023-03-06T02:53:02.142Z,27.45
2023-03-06T02:55:31.619Z,27.15
2023-03-06T02:58:01.472Z,26.97
2023-03-06T03:00:30.518Z,24.80
2023-03-06T03:02:58.409Z,28.20
2023-03-06T03:05:26.989Z,26.88
2023-03-06T03:08:00.432Z,23.23
2023-03-06T03:10:29.802Z,23.40
2023-03-06T03:12:58.205Z,23.73
2023-03-06T03:15:27.522Z,22.52
2023-03-06T03:17:55.072Z,28.35
2023-03-06T03:20:23.519Z,21.92
2023-03-06T03:22:54.839Z,24.67
2023-03-06T03:25:23.870Z,25.27
2023-03-06T03:27:52.574Z,20.80
2023-03-06T03:30:21.144Z,22.20
2023-03-06T03:32:50.639Z,22.25
2023-03-06T03:35:18.991Z,24.07
2023-03-06T03:37:47.669Z,23.17
2023-03-06T03:40:15.735Z,22.85
2023-03-06T03:42:43.365Z,23.75
2023-03-06T03:45:12.486Z,22.75
2023-03-06T03:47:41.400Z,23.73
2023-03-06T03:50:11.959Z,20.85
2023-03-06T03:52:39.970Z,22.08
2023-03-06T03:55:08.924Z,23.92
2023-03-06T03:57:39.282Z,21.23
2023-03-06T04:00:09.864Z,20.87
2023-03-06T04:02:59.999Z,22.23
2023-03-06T04:05:34.106Z,21.40
2023-03-06T04:08:04.208Z,22.85
2023-03-06T04:10:34.184Z,19.55
2023-03-06T04:13:02.595Z,19.00
2023-03-06T04:15:30.406Z,23.65
2023-03-06T04:17:58.077Z,21.05
2023-03-06T04:20:28.844Z,18.50
2023-03-06T04:22:59.330Z,20.00
2023-03-06T04:25:26.919Z,21.37
2023-03-06T04:27:54.610Z,19.80
2023-03-06T04:30:22.579Z,19.58
2023-03-06T04:32:50.095Z,18.73
2023-03-06T04:35:18.138Z,18.38
2023-03-06T04:37:55.791Z,17.07
2023-03-06T04:40:28.881Z,19.45
2023-03-06T04:42:57.280Z,16.23
2023-03-06T04:45:25.645Z,14.70
2023-03-06T04:47:53.434Z,14.23
2023-03-06T04:50:22.230Z,14.70
2023-03-06T04:52:49.745Z,14.70
2023-03-06T04:55:18.339Z,19.20
2023-03-06T04:57:48.073Z,16.70
2023-03-06T05:00:18.224Z,13.93
2023-03-06T05:02:46.613Z,15.63
2023-03-06T05:05:15.758Z,15.57
2023-03-06T05:07:43.773Z,13.05
2023-03-06T05:10:14.041Z,12.65
2023-03-06T05:12:41.956Z,13.82
2023-03-06T05:15:12.971Z,12.40
2023-03-06T05:17:40.575Z,11.93
2023-03-06T05:20:11.263Z,15.75
2023-03-06T05:22:39.008Z,11.93
2023-03-06T05:25:07.375Z,11.00
2023-03-06T05:27:35.371Z,13.23
2023-03-06T05:30:03.662Z,10.30
2023-03-06T05:32:35.368Z,14.60
2023-03-06T05:35:03.290Z,11.73
2023-03-06T05:37:30.977Z,13.98
2023-03-06T05:39:58.688Z,14.70
2023-03-06T05:42:28.611Z,14.85
2023-03-06T05:44:56.273Z,16.90
2023-03-06T05:47:23.814Z,14.43
2023-03-06T05:49:52.685Z,13.68
2023-03-06T05:52:20.459Z,11.43
2023-03-06T05:54:50.875Z,11.63
2023-03-06T05:57:20.422Z,14.57
2023-03-06T05:59:48.530Z,13.82
2023-03-06T06:02:16.218Z,12.63
2023-03-06T06:04:44.338Z,12.90
2023-03-06T06:07:15.949Z,14.30
2023-03-06T06:09:45.357Z,23.98
2023-03-06T06:12:13.978Z,21.42
2023-03-06T06:14:41.580Z,22.27
2023-03-06T06:17:09.132Z,24.53
2023-03-06T06:19:36.698Z,14.23
2023-03-06T06:22:04.312Z,12.13
2023-03-06T06:24:33.252Z,11.25
2023-03-06T06:27:03.756Z,13.65
2023-03-06T06:29:32.016Z,13.37
2023-03-06T06:32:00.368Z,13.60
2023-03-06T06:34:29.015Z,19.52
2023-03-06T06:36:56.564Z,31.02
2023-03-06T06:39:25.318Z,17.20
2023-03-06T06:42:26.083Z,20.63
2023-03-06T06:44:41.705Z,38.50
2023-03-06T06:47:25.759Z,18.02
2023-03-06T06:49:55.369Z,23.17
2023-03-06T06:52:23.609Z,29.05
2023-03-06T06:54:51.223Z,16.00
2023-03-06T06:57:20.160Z,33.20
2023-03-06T06:59:47.719Z,50.20
2023-03-06T07:02:16.438Z,19.90
2023-03-06T07:05:01.962Z,15.80
2023-03-06T07:07:30.624Z,15.50
2023-03-06T07:09:58.160Z,21.65
2023-03-06T07:12:27.140Z,18.60
2023-03-06T07:14:54.703Z,26.13
2023-03-06T07:17:22.289Z,23.20
2023-03-06T07:19:50.157Z,19.37
2023-03-06T07:22:17.669Z,28.13
2023-03-06T07:24:45.187Z,14.38
2023-03-06T07:27:13.069Z,19.15
2023-03-06T07:29:43.213Z,14.25
2023-03-06T07:32:11.144Z,20.87
2023-03-06T07:34:38.725Z,18.67
2023-03-06T07:37:06.322Z,13.63
2023-03-06T07:39:33.917Z,16.17
2023-03-06T07:42:01.569Z,21.00
2023-03-06T07:44:29.096Z,17.20
2023-03-06T07:46:58.094Z,15.85
2023-03-06T07:49:25.682Z,14.07
2023-03-06T07:51:53.256Z,15.63
2023-03-06T07:54:20.843Z,17.85
2023-03-06T07:56:51.118Z,14.27
2023-03-06T07:59:18.969Z,16.83
2023-03-06T08:01:46.548Z,16.73
2023-03-06T08:04:15.627Z,16.05
2023-03-06T08:06:43.266Z,15.80
2023-03-06T08:09:10.795Z,14.90
2023-03-06T08:11:38.358Z,15.38
2023-03-06T08:14:05.925Z,14.43
2023-03-06T08:16:33.623Z,13.13
2023-03-06T08:19:01.190Z,14.80
2023-03-06T08:21:30.210Z,16.60
2023-03-06T08:23:57.870Z,14.32
2023-03-06T08:26:28.713Z,11.77
2023-03-06T08:28:58.264Z,13.35
2023-03-06T08:31:28.655Z,15.07
2023-03-06T08:33:58.042Z,16.60
2023-03-06T08:36:25.957Z,17.13
2023-03-06T08:38:54.951Z,14.75
2023-03-06T08:41:23.317Z,15.13
2023-03-06T08:43:51.332Z,14.38
2023-03-06T08:46:19.716Z,14.17
2023-03-06T08:48:48.157Z,13.95
2023-03-06T08:51:16.202Z,15.98
2023-03-06T08:53:44.527Z,14.35
2023-03-06T08:56:18.507Z,12.82
2023-03-06T08:58:46.540Z,12.27
2023-03-06T09:01:15.817Z,12.30
2023-03-06T09:03:43.505Z,13.95
2023-03-06T09:06:11.406Z,15.55
2023-03-06T09:08:42.819Z,15.50
2023-03-06T09:11:10.837Z,14.43
2023-03-06T09:13:40.003Z,13.32
2023-03-06T09:16:08.779Z,13.23
2023-03-06T09:18:36.663Z,12.63
2023-03-06T09:21:04.866Z,12.05
2023-03-06T09:23:32.773Z,12.50
2023-03-06T09:26:01.442Z,14.82
2023-03-06T09:28:28.999Z,11.80
2023-03-06T09:30:58.106Z,23.42
2023-03-06T09:33:25.666Z,15.02
2023-03-06T09:35:55.476Z,14.47
2023-03-06T09:38:25.006Z,14.73
2023-03-06T09:41:04.540Z,14.02
2023-03-06T09:43:36.282Z,14.48
2023-03-06T09:46:17.500Z,13.55
2023-03-06T09:48:57.929Z,12.73
2023-03-06T09:51:33.953Z,13.35
2023-03-06T09:54:12.778Z,13.90
2023-03-06T09:56:45.057Z,13.93
2023-03-06T09:59:18.240Z,14.57
2023-03-06T10:01:54.922Z,13.50
2023-03-06T10:04:35.521Z,11.85
2023-03-06T10:07:09.285Z,13.32
2023-03-06T10:09:43.936Z,11.23
2023-03-06T10:12:25.051Z,12.02
2023-03-06T10:15:12.966Z,13.93
2023-03-06T10:17:43.403Z,11.95
2023-03-06T10:20:18.663Z,13.68
2023-03-06T10:23:00.637Z,11.45
2023-03-06T10:25:33.826Z,13.60
2023-03-06T10:28:10.519Z,11.43
2023-03-06T10:30:43.429Z,10.05
2023-03-06T10:33:23.638Z,12.27
2023-03-06T10:35:53.210Z,9.90
2023-03-06T10:38:23.990Z,8.98
2023-03-06T10:41:20.691Z,11.37
2023-03-06T10:44:18.892Z,9.05
2023-03-06T10:46:48.776Z,9.82
2023-03-06T10:49:31.019Z,10.82
2023-03-06T10:52:01.677Z,11.02
2023-03-06T10:54:30.870Z,9.77
2023-03-06T10:56:58.530Z,9.77
2023-03-06T10:59:28.390Z,12.32
2023-03-06T11:01:58.027Z,7.45
2023-03-06T11:04:30.098Z,8.10
2023-03-06T11:07:13.035Z,7.57
2023-03-06T11:09:41.789Z,9.45
2023-03-06T11:12:26.079Z,6.28
2023-03-06T11:15:18.464Z,6.72
2023-03-06T11:17:52.295Z,8.98
2023-03-06T11:20:24.768Z,7.93
2023-03-06T11:22:56.527Z,7.78
2023-03-06T11:25:30.814Z,7.18
2023-03-06T11:28:03.220Z,8.63
2023-03-06T11:30:38.437Z,7.10
2023-03-06T11:33:16.462Z,5.60
2023-03-06T11:35:52.777Z,5.90
2023-03-06T11:38:26.970Z,4.72
2023-03-06T11:40:56.957Z,6.38
2023-03-06T11:43:33.416Z,4.95
2023-03-06T11:46:06.437Z,7.40
2023-03-06T11:48:37.702Z,8.95
2023-03-06T11:51:14.976Z,6.22
2023-03-06T11:53:42.695Z,6.07
2023-03-06T11:56:30.537Z,7.40
2023-03-06T11:59:07.845Z,4.43
2023-03-06T12:01:39.964Z,9.07
2023-03-06T12:04:38.596Z,4.90
2023-03-06T12:07:20.789Z,5.55
2023-03-06T12:09:56.735Z,5.78
2023-03-06T12:12:38.569Z,3.57
2023-03-06T12:15:23.607Z,5.45
2023-03-06T12:18:14.159Z,5.22
2023-03-06T12:20:54.253Z,7.13
2023-03-06T12:23:43.642Z,6.57
2023-03-06T12:26:28.631Z,4.63
2023-03-06T12:29:12.815Z,4.65
2023-03-06T12:31:54.007Z,3.88
2023-03-06T12:34:34.280Z,6.10
2023-03-06T12:37:13.969Z,6.85
2023-03-06T12:39:55.647Z,4.43
2023-03-06T12:42:39.761Z,4.00
2023-03-06T12:45:28.437Z,6.15
2023-03-06T12:47:57.969Z,4.25
2023-03-06T12:50:28.401Z,4.90
2023-03-06T12:52:58.940Z,5.60
2023-03-06T12:55:28.085Z,4.35
2023-03-06T12:57:55.694Z,6.30
2023-03-06T13:01:05.778Z,7.10
2023-03-06T13:03:49.699Z,7.18
2023-03-06T13:06:44.961Z,3.80
2023-03-06T13:09:20.705Z,3.47
2023-03-06T13:12:05.231Z,4.75
2023-03-06T13:14:54.841Z,4.50
2023-03-06T13:17:34.397Z,7.20
2023-03-06T13:20:23.793Z,7.60
2023-03-06T13:22:51.298Z,4.20
2023-03-06T13:25:48.781Z,3.40
2023-03-06T13:28:40.833Z,5.43
2023-03-06T13:31:21.390Z,4.47
2023-03-06T13:34:00.042Z,4.63
2023-03-06T13:36:29.948Z,8.00
2023-03-06T13:39:08.536Z,4.63
2023-03-06T13:41:41.454Z,5.57
2023-03-06T13:44:49.552Z,5.05
2023-03-06T13:48:05.805Z,6.20
2023-03-06T13:50:36.523Z,5.07
2023-03-06T13:53:21.722Z,6.70
2023-03-06T13:56:00.142Z,6.47
2023-03-06T13:58:42.524Z,4.35
2023-03-06T14:01:28.126Z,5.87
2023-03-06T14:04:19.737Z,4.38
2023-03-06T14:07:01.669Z,4.68
2023-03-06T14:09:33.538Z,4.22
2023-03-06T14:12:08.729Z,6.60
2023-03-06T14:14:40.982Z,6.73
2023-03-06T14:17:19.277Z,3.97
2023-03-06T14:19:48.493Z,4.53
2023-03-06T14:22:19.624Z,3.90
2023-03-06T14:24:55.995Z,7.13
2023-03-06T14:27:45.701Z,4.17
2023-03-06T14:30:16.745Z,5.13
2023-03-06T14:32:44.481Z,4.68
2023-03-06T14:35:29.499Z,5.65
2023-03-06T14:38:00.115Z,5.97
2023-03-06T14:40:32.419Z,4.00
2023-03-06T14:43:21.537Z,5.45
2023-03-06T14:45:55.277Z,4.68
2023-03-06T14:48:23.541Z,3.90
2023-03-06T14:50:54.811Z,3.92
2023-03-06T14:53:25.670Z,8.50
2023-03-06T14:55:57.741Z,5.50
2023-03-06T14:58:32.394Z,4.07
2023-03-06T15:01:04.364Z,4.85
2023-03-06T15:03:39.623Z,3.70
2023-03-06T15:06:11.883Z,5.37
2023-03-06T15:08:41.408Z,5.35
2023-03-06T15:11:08.936Z,5.30
2023-03-06T15:13:36.678Z,4.35
2023-03-06T15:16:06.176Z,9.20
2023-03-06T15:18:38.736Z,5.33
2023-03-06T15:21:17.927Z,7.00
2023-03-06T15:23:47.124Z,8.00
2023-03-06T15:26:28.046Z,6.18
2023-03-06T15:29:08.315Z,7.88
2023-03-06T15:31:38.151Z,4.07
2023-03-06T15:34:23.408Z,5.13
2023-03-06T15:36:55.175Z,5.25
2023-03-06T15:39:35.234Z,4.80
2023-03-06T15:42:08.519Z,3.67
2023-03-06T15:44:36.086Z,7.83
2023-03-06T15:47:08.828Z,7.93
2023-03-06T15:49:38.098Z,5.32
2023-03-06T15:52:07.555Z,9.90
2023-03-06T15:54:35.652Z,4.90
2023-03-06T15:57:05.132Z,4.83
2023-03-06T15:59:36.302Z,5.35
2023-03-06T16:02:12.571Z,7.35
2023-03-06T16:04:40.234Z,7.70
2023-03-06T16:07:09.326Z,5.95
2023-03-06T16:09:37.063Z,4.73
2023-03-06T16:12:05.492Z,5.43
2023-03-06T16:14:33.144Z,4.32
2023-03-06T16:17:00.673Z,6.43
2023-03-06T16:19:28.264Z,4.43
2023-03-06T16:21:56.591Z,5.33
2023-03-06T16:24:26.084Z,4.05
2023-03-06T16:26:55.194Z,6.18
2023-03-06T16:29:24.554Z,5.95
2023-03-06T16:31:52.483Z,4.45
2023-03-06T16:34:20.047Z,6.57
2023-03-06T16:36:49.092Z,6.30
2023-03-06T16:39:18.171Z,8.60
2023-03-06T16:41:47.251Z,5.75
2023-03-06T16:44:14.777Z,7.78
2023-03-06T16:46:45.655Z,5.13
2023-03-06T16:49:17.200Z,5.13
2023-03-06T16:51:45.058Z,4.40
2023-03-06T16:54:12.908Z,4.28
2023-03-06T16:56:40.470Z,4.85
2023-03-06T16:59:09.787Z,7.47
2023-03-06T17:01:37.445Z,10.70
2023-03-06T17:04:05.417Z,5.85
2023-03-06T17:06:33.037Z,5.45
2023-03-06T17:09:00.662Z,7.38
2023-03-06T17:11:29.348Z,8.97
2023-03-06T17:13:56.884Z,19.95
2023-03-06T17:16:25.771Z,17.58
2023-03-06T17:18:53.322Z,11.73
2023-03-06T17:21:20.829Z,15.88
2023-03-06T17:23:48.386Z,12.90
2023-03-06T17:26:18.742Z,12.18
2023-03-06T17:28:47.282Z,9.77
2023-03-06T17:31:16.572Z,16.15
2023-03-06T17:33:45.977Z,9.98
2023-03-06T17:36:14.282Z,7.17
2023-03-06T17:38:42.012Z,12.32
2023-03-06T17:41:11.465Z,8.98
2023-03-06T17:43:39.690Z,8.30
2023-03-06T17:46:08.744Z,6.32
2023-03-06T17:48:37.207Z,7.03
2023-03-06T17:51:07.316Z,10.55
2023-03-06T17:53:34.897Z,9.90
2023-03-06T17:56:04.117Z,8.30
2023-03-06T17:58:32.144Z,10.77
2023-03-06T18:01:00.149Z,7.30
2023-03-06T18:03:27.715Z,12.52
2023-03-06T18:06:04.474Z,10.30
2023-03-06T18:08:33.400Z,7.35
2023-03-06T18:11:03.382Z,10.23
2023-03-06T18:13:31.068Z,11.00
2023-03-06T18:15:58.644Z,10.25
2023-03-06T18:18:26.437Z,14.25
2023-03-06T18:20:54.035Z,11.52
2023-03-06T18:23:21.601Z,8.30
2023-03-06T18:25:50.962Z,7.30
2023-03-06T18:28:18.491Z,8.95
2023-03-06T18:30:46.561Z,7.88
2023-03-06T18:33:14.158Z,7.60
2023-03-06T18:35:43.991Z,9.35
2023-03-06T18:38:11.607Z,9.27
2023-03-06T18:40:39.240Z,9.70
2023-03-06T18:43:08.144Z,12.63
2023-03-06T18:45:35.748Z,8.50
2023-03-06T18:48:04.803Z,7.55
2023-03-06T18:50:32.326Z,8.43
2023-03-06T18:52:59.824Z,9.85
2023-03-06T18:55:27.344Z,7.22
2023-03-06T18:57:54.918Z,7.75
2023-03-06T19:00:24.482Z,8.32
2023-03-06T19:02:51.996Z,7.53
2023-03-06T19:05:19.505Z,9.10
2023-03-06T19:07:47.091Z,15.23
2023-03-06T19:10:14.588Z,9.35
2023-03-06T19:12:42.181Z,6.72
2023-03-06T19:15:10.476Z,7.83
2023-03-06T19:17:39.446Z,7.28
2023-03-06T19:20:08.055Z,6.78
2023-03-06T19:22:35.645Z,9.77
2023-03-06T19:25:03.964Z,6.13
2023-03-06T19:27:32.549Z,5.87
2023-03-06T19:30:00.120Z,6.63
2023-03-06T19:32:28.754Z,8.25
2023-03-06T19:34:59.218Z,7.57
2023-03-06T19:37:26.778Z,7.13
2023-03-06T19:39:54.388Z,16.27
2023-03-06T19:42:21.919Z,13.70
2023-03-06T19:44:49.490Z,10.30
2023-03-06T19:47:16.983Z,9.52
2023-03-06T19:49:44.612Z,9.63
2023-03-06T19:52:13.773Z,10.23
2023-03-06T19:54:41.373Z,13.10
2023-03-06T19:57:08.941Z,17.27
2023-03-06T19:59:36.511Z,14.77
2023-03-06T20:02:04.007Z,10.55
2023-03-06T20:04:33.336Z,7.73
2023-03-06T20:07:00.951Z,9.10
2023-03-06T20:09:32.231Z,6.60
2023-03-06T20:11:59.969Z,7.97
2023-03-06T20:14:27.546Z,12.02
2023-03-06T20:16:55.149Z,9.40
2023-03-06T20:19:22.722Z,6.57
2023-03-06T20:21:50.265Z,6.35
2023-03-06T20:24:18.729Z,7.38
2023-03-06T20:26:48.823Z,6.43
2023-03-06T20:29:16.355Z,7.07
2023-03-06T20:31:43.996Z,6.47
2023-03-06T20:34:12.062Z,8.85
2023-03-06T20:36:41.370Z,7.82
2023-03-06T20:39:12.151Z,11.32
2023-03-06T20:41:40.262Z,6.63
2023-03-06T20:44:13.516Z,7.25
2023-03-06T20:46:41.284Z,7.68
2023-03-06T20:49:09.576Z,8.05
2023-03-06T20:51:39.210Z,8.60
2023-03-06T20:54:08.047Z,6.07
2023-03-06T20:56:39.335Z,8.98
2023-03-06T20:59:07.553Z,7.43
2023-03-06T21:01:39.016Z,7.93
2023-03-06T21:04:06.700Z,9.57
2023-03-06T21:06:34.406Z,9.17
2023-03-06T21:09:02.476Z,11.40
2023-03-06T21:11:30.058Z,10.38
2023-03-06T21:13:57.738Z,10.98
2023-03-06T21:16:26.917Z,9.15
2023-03-06T21:18:56.973Z,8.47
2023-03-06T21:21:28.202Z,10.13
2023-03-06T21:23:55.944Z,10.40
2023-03-06T21:26:25.553Z,10.82
2023-03-06T21:28:53.481Z,10.75
2023-03-06T21:31:22.595Z,11.67
2023-03-06T21:33:51.501Z,10.85
2023-03-06T21:36:22.420Z,10.10
2023-03-06T21:38:51.078Z,11.13
2023-03-06T21:41:20.053Z,8.48
2023-03-06T21:43:47.676Z,11.17
2023-03-06T21:46:15.247Z,10.98
2023-03-06T21:48:42.866Z,9.10
2023-03-06T21:51:12.649Z,9.25
2023-03-06T21:53:43.974Z,13.13
2023-03-06T21:56:12.910Z,9.07
2023-03-06T21:58:41.699Z,9.73
2023-03-06T22:01:10.599Z,10.02
2023-03-06T22:03:38.301Z,10.90
2023-03-06T22:06:10.801Z,8.65
2023-03-06T22:08:38.418Z,9.13
2023-03-06T22:11:09.397Z,9.35
2023-03-06T22:13:37.214Z,10.93
2023-03-06T22:16:05.576Z,10.13
2023-03-06T22:18:33.371Z,9.40
2023-03-06T22:21:00.899Z,9.00
2023-03-06T22:23:28.400Z,11.25
2023-03-06T22:25:55.949Z,8.38
2023-03-06T22:28:24.818Z,9.68
2023-03-06T22:30:52.298Z,9.55
2023-03-06T22:33:19.821Z,8.17
2023-03-06T22:35:47.363Z,7.03
2023-03-06T22:38:15.893Z,8.85
2023-03-06T22:40:43.429Z,8.50
2023-03-06T22:43:10.981Z,10.63
2023-03-06T22:45:39.879Z,8.97
2023-03-06T22:48:11.142Z,8.32
2023-03-06T22:50:38.841Z,8.50
2023-03-06T22:53:06.328Z,9.50
2023-03-06T22:55:35.805Z,12.60
2023-03-06T22:58:03.408Z,12.00
2023-03-06T23:00:30.930Z,9.48
2023-03-06T23:02:59.843Z,13.18
2023-03-06T23:05:29.358Z,11.77
2023-03-06T23:07:57.125Z,13.52
2023-03-06T23:10:24.644Z,17.23
2023-03-06T23:13:10.683Z,17.20
2023-03-06T23:15:56.730Z,17.83
2023-03-06T23:18:44.036Z,19.05
2023-03-06T23:21:30.309Z,15.32
2023-03-06T23:24:17.076Z,20.23
2023-03-06T23:26:44.642Z,19.88
2023-03-06T23:29:12.501Z,17.17
2023-03-06T23:31:39.997Z,21.08
2023-03-06T23:34:11.427Z,20.80
2023-03-06T23:36:38.911Z,21.60
2023-03-06T23:39:06.426Z,21.52
2023-03-06T23:41:34.114Z,23.38
2023-03-06T23:44:01.668Z,22.25
2023-03-06T23:46:29.300Z,24.02
2023-03-06T23:48:56.922Z,22.37
2023-03-06T23:51:25.805Z,23.67
2023-03-06T23:53:59.802Z,24.95
2023-03-06T23:56:29.190Z,28.83
2023-03-06T23:58:56.846Z,30.33
